createdAt,value
2022-11-22T00:01:15.702Z,7.00
2022-11-22T00:03:43.718Z,7.00
2022-11-22T00:06:11.737Z,7.10
2022-11-22T00:08:39.756Z,6.90
2022-11-22T00:11:09.097Z,7.00
2022-11-22T00:13:37.115Z,7.00
2022-11-22T00:16:06.169Z,6.80
2022-11-22T00:18:34.201Z,6.80
2022-11-22T00:21:07.332Z,6.80
2022-11-22T00:23:35.502Z,7.10
2022-11-22T00:26:03.518Z,7.00
2022-11-22T00:28:33.074Z,6.90
2022-11-22T00:31:01.034Z,6.90
2022-11-22T00:33:29.038Z,7.10
2022-11-22T00:35:57.091Z,7.10
2022-11-22T00:38:25.096Z,6.90
2022-11-22T00:40:53.101Z,7.00
2022-11-22T00:43:21.092Z,7.00
2022-11-22T00:45:50.494Z,7.00
2022-11-22T00:48:18.523Z,7.10
2022-11-22T00:50:46.650Z,7.40
2022-11-22T00:53:14.694Z,7.20
2022-11-22T00:55:42.724Z,7.10
2022-11-22T00:58:10.726Z,7.10
2022-11-22T01:00:38.836Z,7.20
2022-11-22T01:03:08.376Z,7.10
2022-11-22T01:05:36.354Z,7.00
2022-11-22T01:08:05.052Z,7.10
2022-11-22T01:10:33.468Z,7.00
2022-11-22T01:13:01.481Z,7.10
2022-11-22T01:15:29.628Z,6.90
2022-11-22T01:17:57.634Z,6.90
2022-11-22T01:20:27.011Z,6.80
2022-11-22T01:22:55.109Z,6.70
2022-11-22T01:25:23.093Z,6.90
2022-11-22T01:27:51.123Z,6.80
2022-11-22T01:30:19.674Z,6.70
2022-11-22T01:32:47.711Z,6.70
2022-11-22T01:35:16.108Z,6.70
2022-11-22T01:37:45.495Z,6.70
2022-11-22T01:40:13.746Z,6.70
2022-11-22T01:42:49.133Z,6.60
2022-11-22T01:45:54.817Z,6.70
2022-11-22T01:48:43.802Z,6.80
2022-11-22T01:51:23.943Z,6.70
2022-11-22T01:53:54.842Z,6.70
2022-11-22T01:56:24.291Z,7.00
2022-11-22T01:58:59.899Z,7.10
2022-11-22T02:01:29.773Z,7.20
2022-11-22T02:04:01.928Z,7.20
2022-11-22T02:06:39.704Z,7.10
2022-11-22T02:09:13.199Z,7.00
2022-11-22T02:11:47.744Z,7.00
2022-11-22T02:14:18.186Z,7.10
2022-11-22T02:16:49.141Z,7.10
2022-11-22T02:19:25.054Z,7.00
2022-11-22T02:22:00.859Z,7.10
2022-11-22T02:24:38.657Z,7.10
2022-11-22T02:27:08.013Z,7.00
2022-11-22T02:29:36.667Z,7.10
2022-11-22T02:32:04.764Z,7.10
2022-11-22T02:34:44.102Z,7.10
2022-11-22T02:37:14.584Z,7.20
2022-11-22T02:39:45.995Z,7.10
2022-11-22T02:42:15.729Z,7.10
2022-11-22T02:44:43.858Z,7.10
2022-11-22T02:47:11.826Z,7.00
2022-11-22T02:49:39.852Z,7.00
2022-11-22T02:52:07.818Z,7.00
2022-11-22T02:54:35.803Z,6.90
2022-11-22T02:57:04.603Z,7.00
2022-11-22T02:59:33.949Z,7.00
2022-11-22T03:02:03.533Z,7.20
2022-11-22T03:04:31.730Z,7.20
2022-11-22T03:07:02.065Z,7.10
2022-11-22T03:09:30.392Z,7.20
2022-11-22T03:11:58.747Z,7.00
2022-11-22T03:14:26.804Z,7.00
2022-11-22T03:16:56.204Z,6.90
2022-11-22T03:19:24.271Z,6.90
2022-11-22T03:21:52.436Z,6.90
2022-11-22T03:24:20.763Z,6.80
2022-11-22T03:26:50.356Z,6.80
2022-11-22T03:29:18.892Z,6.80
2022-11-22T03:31:46.942Z,6.60
2022-11-22T03:34:19.759Z,6.70
2022-11-22T03:36:47.888Z,6.70
2022-11-22T03:39:15.914Z,6.70
2022-11-22T03:41:43.923Z,6.60
2022-11-22T03:44:11.919Z,6.50
2022-11-22T03:46:39.951Z,6.40
2022-11-22T03:49:08.016Z,6.50
2022-11-22T03:51:37.337Z,6.60
2022-11-22T03:54:05.764Z,6.50
2022-11-22T03:56:33.838Z,6.40
2022-11-22T03:59:01.963Z,6.30
2022-11-22T04:01:30.238Z,6.40
2022-11-22T04:03:58.452Z,6.40
2022-11-22T04:06:26.450Z,6.30
2022-11-22T04:08:55.958Z,6.20
2022-11-22T04:11:24.005Z,6.10
2022-11-22T04:14:09.475Z,6.00
2022-11-22T04:16:37.443Z,5.90
2022-11-22T04:19:05.470Z,6.10
2022-11-22T04:21:35.266Z,6.20
2022-11-22T04:24:24.775Z,6.10
2022-11-22T04:26:53.372Z,6.20
2022-11-22T04:29:22.396Z,6.20
2022-11-22T04:32:09.305Z,6.40
2022-11-22T04:34:37.972Z,6.40
2022-11-22T04:37:07.115Z,6.40
2022-11-22T04:39:36.488Z,6.40
2022-11-22T04:42:22.310Z,6.40
2022-11-22T04:44:50.349Z,6.80
2022-11-22T04:47:34.002Z,6.60
2022-11-22T04:50:02.283Z,6.60
2022-11-22T04:52:47.943Z,6.60
2022-11-22T04:55:17.455Z,6.60
2022-11-22T04:57:45.549Z,6.60
2022-11-22T05:00:14.323Z,6.60
2022-11-22T05:02:42.309Z,6.60
2022-11-22T05:05:11.430Z,6.70
2022-11-22T05:07:39.544Z,6.70
2022-11-22T05:10:09.141Z,6.80
2022-11-22T05:12:39.645Z,6.90
2022-11-22T05:15:09.026Z,6.80
2022-11-22T05:17:38.096Z,6.80
2022-11-22T05:20:08.946Z,6.70
2022-11-22T05:22:55.031Z,6.90
2022-11-22T05:25:25.703Z,7.00
2022-11-22T05:27:58.307Z,6.90
2022-11-22T05:30:26.350Z,6.80
2022-11-22T05:32:56.200Z,6.80
2022-11-22T05:35:24.150Z,6.80
2022-11-22T05:37:52.154Z,7.00
2022-11-22T05:40:20.165Z,7.20
2022-11-22T05:42:48.191Z,7.00
2022-11-22T05:45:17.903Z,7.00
2022-11-22T05:47:46.104Z,6.90
2022-11-22T05:50:14.670Z,6.90
2022-11-22T05:52:42.721Z,6.90
2022-11-22T05:55:10.905Z,6.90
2022-11-22T05:57:38.931Z,6.90
2022-11-22T06:00:08.763Z,6.90
2022-11-22T06:02:38.130Z,6.90
2022-11-22T06:05:09.512Z,6.90
2022-11-22T06:07:39.532Z,7.00
2022-11-22T06:10:08.898Z,7.00
2022-11-22T06:12:36.935Z,7.00
2022-11-22T06:15:05.636Z,7.10
2022-11-22T06:17:33.620Z,7.10
2022-11-22T06:20:06.401Z,7.10
2022-11-22T06:22:34.862Z,7.00
2022-11-22T06:25:02.945Z,7.00
2022-11-22T06:27:31.001Z,7.00
2022-11-22T06:29:59.087Z,7.10
2022-11-22T06:32:27.092Z,7.10
2022-11-22T06:34:55.069Z,7.00
2022-11-22T06:37:24.452Z,7.00
2022-11-22T06:39:52.458Z,7.00
2022-11-22T06:42:20.455Z,7.00
2022-11-22T06:44:48.445Z,7.00
2022-11-22T06:47:17.501Z,7.20
2022-11-22T06:49:46.067Z,7.10
2022-11-22T06:52:14.060Z,7.10
2022-11-22T06:54:43.506Z,7.00
2022-11-22T06:57:14.600Z,7.00
2022-11-22T06:59:42.729Z,6.90
2022-11-22T07:02:12.900Z,7.20
2022-11-22T07:05:09.488Z,7.20
2022-11-22T07:07:34.883Z,7.10
2022-11-22T07:10:04.616Z,7.30
2022-11-22T07:12:35.253Z,7.20
2022-11-22T07:15:03.303Z,7.10
2022-11-22T07:17:33.034Z,7.10
2022-11-22T07:20:02.950Z,7.10
2022-11-22T07:22:31.008Z,7.30
2022-11-22T07:24:59.032Z,7.30
2022-11-22T07:27:28.356Z,7.30
2022-11-22T07:29:56.399Z,7.30
2022-11-22T07:32:24.405Z,7.20
2022-11-22T07:34:52.491Z,7.20
2022-11-22T07:37:20.594Z,7.10
2022-11-22T07:39:49.306Z,7.20
2022-11-22T07:42:19.266Z,7.20
2022-11-22T07:44:51.709Z,7.20
2022-11-22T07:47:22.923Z,7.20
2022-11-22T07:49:51.629Z,7.20
2022-11-22T07:52:19.663Z,7.30
2022-11-22T07:54:47.696Z,7.40
2022-11-22T07:57:18.807Z,7.60
2022-11-22T07:59:46.816Z,7.70
2022-11-22T08:02:16.255Z,7.90
2022-11-22T08:04:44.377Z,7.70
2022-11-22T08:07:12.445Z,7.70
2022-11-22T08:09:43.518Z,7.80
2022-11-22T08:12:11.660Z,8.00
2022-11-22T08:14:39.738Z,8.10
2022-11-22T08:17:07.788Z,8.20
2022-11-22T08:19:37.141Z,8.20
2022-11-22T08:22:05.192Z,8.20
2022-11-22T08:24:33.870Z,8.00
2022-11-22T08:27:01.859Z,8.00
2022-11-22T08:29:30.367Z,7.80
2022-11-22T08:31:58.610Z,8.00
2022-11-22T08:34:26.648Z,8.10
2022-11-22T08:36:58.339Z,8.10
2022-11-22T08:39:29.196Z,8.10
2022-11-22T08:42:00.243Z,7.90
2022-11-22T08:44:31.098Z,7.70
2022-11-22T08:46:59.179Z,7.80
2022-11-22T08:49:27.231Z,7.70
2022-11-22T08:51:56.895Z,7.70
2022-11-22T08:54:33.563Z,7.70
2022-11-22T08:57:04.256Z,7.70
2022-11-22T08:59:32.835Z,7.70
2022-11-22T09:02:03.071Z,7.60
2022-11-22T09:04:31.560Z,7.70
2022-11-22T09:09:49.275Z,7.90
2022-11-22T09:12:17.847Z,8.20
2022-11-22T09:14:45.859Z,8.30
2022-11-22T09:17:18.145Z,8.40
2022-11-22T09:19:46.642Z,8.40
2022-11-22T09:22:17.810Z,8.60
2022-11-22T09:24:45.912Z,8.50
2022-11-22T09:27:18.549Z,8.60
2022-11-22T09:29:46.671Z,8.80
2022-11-22T09:32:14.732Z,8.80
2022-11-22T09:34:43.239Z,8.60
2022-11-22T09:37:11.290Z,8.50
2022-11-22T09:39:46.789Z,8.90
2022-11-22T09:42:49.202Z,9.10
2022-11-22T09:45:50.578Z,9.20
2022-11-22T09:48:49.730Z,9.10
2022-11-22T09:51:28.332Z,9.20
2022-11-22T09:54:02.297Z,9.30
2022-11-22T09:56:32.148Z,9.40
2022-11-22T09:59:06.494Z,9.30
2022-11-22T10:01:43.268Z,9.20
2022-11-22T10:04:17.440Z,9.30
2022-11-22T10:06:51.564Z,9.40
2022-11-22T10:09:32.202Z,9.10
2022-11-22T10:12:07.454Z,9.00
2022-11-22T10:14:48.643Z,8.80
2022-11-22T10:17:36.406Z,8.80
2022-11-22T10:20:10.295Z,8.70
2022-11-22T10:22:38.684Z,8.40
2022-11-22T10:25:18.485Z,8.10
2022-11-22T10:27:59.071Z,7.80
2022-11-22T10:30:35.896Z,8.10
2022-11-22T10:33:15.468Z,8.20
2022-11-22T10:36:14.461Z,8.10
2022-11-22T10:39:02.895Z,8.20
2022-11-22T10:41:47.948Z,8.50
2022-11-22T10:44:29.638Z,8.40
2022-11-22T10:47:05.215Z,8.60
2022-11-22T10:49:48.972Z,8.90
2022-11-22T10:52:29.104Z,9.80
2022-11-22T10:55:16.089Z,10.20
2022-11-22T10:57:53.577Z,10.50
2022-11-22T11:00:24.891Z,10.70
2022-11-22T11:03:09.515Z,10.50
2022-11-22T11:06:15.348Z,10.20
2022-11-22T11:09:23.357Z,9.90
2022-11-22T11:11:34.160Z,9.60
2022-11-22T11:14:07.338Z,9.40
2022-11-22T11:16:38.995Z,9.30
2022-11-22T11:19:20.534Z,9.30
2022-11-22T11:22:00.128Z,9.40
2022-11-22T11:24:31.098Z,9.40
2022-11-22T11:27:01.459Z,9.20
2022-11-22T11:29:51.769Z,9.10
2022-11-22T11:32:22.565Z,8.90
2022-11-22T11:34:56.812Z,8.90
2022-11-22T11:37:32.807Z,8.90
2022-11-22T11:40:00.887Z,8.80
2022-11-22T11:42:31.717Z,8.90
2022-11-22T11:45:28.734Z,8.90
2022-11-22T11:47:58.107Z,9.00
2022-11-22T11:50:28.531Z,8.90
2022-11-22T11:52:58.617Z,8.90
2022-11-22T11:55:31.628Z,8.90
2022-11-22T11:57:59.929Z,9.00
2022-11-22T12:00:36.709Z,9.00
2022-11-22T12:03:12.032Z,9.00
2022-11-22T12:05:40.139Z,9.00
2022-11-22T12:08:30.551Z,9.00
2022-11-22T12:11:05.663Z,9.00
2022-11-22T12:13:58.112Z,9.00
2022-11-22T12:16:31.504Z,9.10
2022-11-22T12:19:24.374Z,9.10
2022-11-22T12:22:01.835Z,8.90
2022-11-22T12:25:02.571Z,9.00
2022-11-22T12:27:24.767Z,9.20
2022-11-22T12:29:55.591Z,9.00
2022-11-22T12:32:29.006Z,9.00
2022-11-22T12:35:04.568Z,9.10
2022-11-22T12:37:40.752Z,9.10
2022-11-22T12:40:18.983Z,8.80
2022-11-22T12:42:51.448Z,8.70
2022-11-22T12:45:29.504Z,8.70
2022-11-22T12:48:01.366Z,8.70
2022-11-22T12:50:38.760Z,8.80
2022-11-22T12:53:13.430Z,8.80
2022-11-22T12:55:50.587Z,8.60
2022-11-22T12:58:25.493Z,8.50
2022-11-22T13:01:13.393Z,8.40
2022-11-22T13:03:50.995Z,8.40
2022-11-22T13:06:24.974Z,8.30
2022-11-22T13:09:03.749Z,8.40
2022-11-22T13:11:36.575Z,8.20
2022-11-22T13:14:13.191Z,8.20
2022-11-22T13:16:44.582Z,8.00
2022-11-22T13:19:16.864Z,8.10
2022-11-22T13:22:11.488Z,8.00
2022-11-22T13:24:56.260Z,8.00
2022-11-22T13:27:30.864Z,8.20
2022-11-22T13:30:02.129Z,8.30
2022-11-22T13:32:33.549Z,8.20
2022-11-22T13:35:07.378Z,8.10
2022-11-22T13:37:40.442Z,8.20
2022-11-22T13:40:25.872Z,8.20
2022-11-22T13:43:49.179Z,8.20
2022-11-22T13:46:54.715Z,8.10
2022-11-22T13:49:39.115Z,8.30
2022-11-22T13:52:54.398Z,8.40
2022-11-22T13:55:41.697Z,8.40
2022-11-22T13:58:54.944Z,8.30
2022-11-22T14:01:59.280Z,8.30
2022-11-22T14:04:39.940Z,8.30
2022-11-22T14:07:35.417Z,8.20
2022-11-22T14:10:26.580Z,8.30
2022-11-22T14:13:25.187Z,8.30
2022-11-22T14:16:04.163Z,8.40
2022-11-22T14:18:52.294Z,8.40
2022-11-22T14:21:47.628Z,8.30
2022-11-22T14:24:31.870Z,8.40
2022-11-22T14:27:14.137Z,8.40
2022-11-22T14:30:12.183Z,8.40
2022-11-22T14:32:59.417Z,8.30
2022-11-22T14:35:36.424Z,8.10
2022-11-22T14:38:30.929Z,8.10
2022-11-22T14:41:53.891Z,8.10
2022-11-22T14:44:33.084Z,8.10
2022-11-22T14:47:07.587Z,8.10
2022-11-22T14:49:43.723Z,8.20
2022-11-22T14:52:21.905Z,8.00
2022-11-22T14:54:54.854Z,8.20
2022-11-22T14:57:26.259Z,8.20
2022-11-22T15:00:19.515Z,8.20
2022-11-22T15:03:41.968Z,8.20
2022-11-22T15:09:19.184Z,8.20
2022-11-22T15:09:52.978Z,8.30
2022-11-22T15:12:55.151Z,8.40
2022-11-22T15:57:35.420Z,8.50
2022-11-22T16:00:10.054Z,8.60
2022-11-22T16:02:50.458Z,8.50
2022-11-22T16:06:03.555Z,8.60
2022-11-22T16:08:18.241Z,8.30
2022-11-22T16:10:50.982Z,8.20
2022-11-22T16:13:28.890Z,8.30
2022-11-22T16:16:21.053Z,8.50
2022-11-22T16:18:50.717Z,8.40
2022-11-22T16:21:28.900Z,8.40
2022-11-22T16:24:12.571Z,8.60
2022-11-22T16:26:40.962Z,8.50
2022-11-22T16:29:29.036Z,8.50
2022-11-22T16:32:02.704Z,8.30
2022-11-22T16:34:30.998Z,8.40
2022-11-22T16:37:00.431Z,8.50
2022-11-22T16:39:29.028Z,8.70
2022-11-22T16:41:57.305Z,8.70
2022-11-22T16:44:26.070Z,8.60
2022-11-22T16:46:54.132Z,8.50
2022-11-22T16:49:23.757Z,8.40
2022-11-22T16:51:52.569Z,8.50
2022-11-22T16:54:23.784Z,8.40
2022-11-22T16:56:51.828Z,8.40
2022-11-22T16:59:19.786Z,8.40
2022-11-22T17:01:47.746Z,8.40
2022-11-22T17:04:23.277Z,8.50
2022-11-22T17:06:52.349Z,8.30
2022-11-22T17:09:21.842Z,8.40
2022-11-22T17:11:50.455Z,8.50
2022-11-22T17:14:19.907Z,8.30
2022-11-22T17:16:50.477Z,8.00
2022-11-22T17:19:45.366Z,8.00
2022-11-22T17:22:07.237Z,7.90
2022-11-22T17:24:36.769Z,8.10
2022-11-22T17:27:05.039Z,8.20
2022-11-22T17:32:23.226Z,8.40
2022-11-22T17:34:51.391Z,8.20
2022-11-22T17:37:19.460Z,8.10
2022-11-22T17:39:52.473Z,8.20
2022-11-22T17:42:20.444Z,7.90
2022-11-22T17:44:48.406Z,8.00
2022-11-22T17:47:16.411Z,8.00
2022-11-22T17:49:44.444Z,7.90
2022-11-22T17:52:12.476Z,7.80
2022-11-22T17:54:40.445Z,7.90
2022-11-22T17:57:10.094Z,8.10
2022-11-22T17:59:38.083Z,8.20
2022-11-22T18:02:06.142Z,8.20
2022-11-22T18:04:34.422Z,8.20
2022-11-22T18:07:02.837Z,8.50
2022-11-22T18:09:31.414Z,8.50
2022-11-22T18:11:59.615Z,8.40
2022-11-22T18:14:30.526Z,8.20
2022-11-22T18:17:00.345Z,8.20
2022-11-22T18:19:28.506Z,8.20
2022-11-22T18:21:57.879Z,8.10
2022-11-22T18:24:26.188Z,8.30
2022-11-22T18:26:54.209Z,8.40
2022-11-22T18:32:12.362Z,8.40
2022-11-22T18:34:41.426Z,8.50
2022-11-22T18:37:09.453Z,8.30
2022-11-22T18:39:39.779Z,8.50
2022-11-22T18:42:13.425Z,8.30
2022-11-22T18:44:41.888Z,8.10
2022-11-22T18:47:11.819Z,8.40
2022-11-22T18:49:39.857Z,8.20
2022-11-22T18:52:09.677Z,8.20
2022-11-22T18:54:40.044Z,8.50
2022-11-22T18:57:08.360Z,8.50
2022-11-22T18:59:36.386Z,8.50
2022-11-22T19:02:04.421Z,8.60
2022-11-22T19:04:34.002Z,8.30
2022-11-22T19:07:02.312Z,8.40
2022-11-22T19:09:30.281Z,8.50
2022-11-22T19:11:58.870Z,8.50
2022-11-22T19:14:28.898Z,8.70
2022-11-22T19:16:57.692Z,8.80
2022-11-22T19:19:25.740Z,8.70
2022-11-22T19:21:55.069Z,8.80
2022-11-22T19:24:23.061Z,8.80
2022-11-22T19:26:51.300Z,8.70
2022-11-22T19:29:20.747Z,8.70
2022-11-22T19:31:48.904Z,8.70
2022-11-22T19:34:16.966Z,8.70
2022-11-22T19:36:45.086Z,8.60
2022-11-22T19:39:16.643Z,8.60
2022-11-22T19:41:45.932Z,8.70
2022-11-22T19:44:14.084Z,8.70
2022-11-22T19:46:42.469Z,8.70
2022-11-22T19:49:10.718Z,8.80
2022-11-22T19:51:39.168Z,8.80
2022-11-22T19:54:08.077Z,8.70
2022-11-22T19:56:39.627Z,8.60
2022-11-22T19:59:15.519Z,8.80
2022-11-22T20:01:44.515Z,8.80
2022-11-22T20:04:15.221Z,8.90
2022-11-22T20:06:48.654Z,9.00
2022-11-22T20:09:18.105Z,8.80
2022-11-22T20:11:47.510Z,8.90
2022-11-22T20:14:15.553Z,8.90
2022-11-22T20:16:43.813Z,8.80
2022-11-22T20:19:12.592Z,8.90
2022-11-22T20:21:41.397Z,8.90
2022-11-22T20:24:10.002Z,8.70
2022-11-22T20:26:38.306Z,8.60
2022-11-22T20:29:11.708Z,8.50
2022-11-22T20:31:40.789Z,8.40
2022-11-22T20:34:09.921Z,8.40
2022-11-22T20:36:37.931Z,8.20
2022-11-22T20:39:10.423Z,8.20
2022-11-22T20:41:40.021Z,8.10
2022-11-22T20:44:13.443Z,8.10
2022-11-22T20:46:42.476Z,8.10
2022-11-22T20:49:10.569Z,8.20
2022-11-22T20:51:39.897Z,8.20
2022-11-22T20:54:08.884Z,8.30
2022-11-22T20:56:37.357Z,8.30
2022-11-22T20:59:05.963Z,8.40
2022-11-22T21:01:35.379Z,8.50
2022-11-22T21:04:03.550Z,8.50
2022-11-22T21:06:32.824Z,8.40
2022-11-22T21:09:00.932Z,8.30
2022-11-22T21:11:30.920Z,8.40
2022-11-22T21:13:59.363Z,8.30
2022-11-22T21:16:29.645Z,8.40
2022-11-22T21:19:01.561Z,8.50
2022-11-22T21:21:30.674Z,8.30
2022-11-22T21:24:00.795Z,8.10
2022-11-22T21:26:29.469Z,7.90
2022-11-22T21:28:57.936Z,7.90
2022-11-22T21:31:26.372Z,7.80
2022-11-22T21:33:55.129Z,7.80
2022-11-22T21:36:25.003Z,7.80
2022-11-22T21:38:53.044Z,7.70
2022-11-22T21:41:39.350Z,7.50
2022-11-22T21:44:07.928Z,7.60
2022-11-22T21:46:35.956Z,7.80
2022-11-22T21:49:04.096Z,7.70
2022-11-22T21:51:34.975Z,7.60
2022-11-22T21:54:04.824Z,7.60
2022-11-22T21:56:32.914Z,7.60
2022-11-22T21:59:01.063Z,7.60
2022-11-22T22:01:29.298Z,7.70
2022-11-22T22:03:57.381Z,7.70
2022-11-22T22:06:25.434Z,8.00
2022-11-22T22:08:54.842Z,8.10
2022-11-22T22:11:23.002Z,8.10
2022-11-22T22:13:53.103Z,7.80
2022-11-22T22:16:23.625Z,7.90
2022-11-22T22:18:51.881Z,7.90
2022-11-22T22:21:21.294Z,7.80
2022-11-22T22:23:49.308Z,7.90
2022-11-22T22:26:19.087Z,8.00
2022-11-22T22:28:47.534Z,8.00
2022-11-22T22:31:21.438Z,8.00
2022-11-22T22:33:51.566Z,7.90
2022-11-22T22:36:19.933Z,7.90
2022-11-22T22:38:47.998Z,7.90
2022-11-22T22:41:16.427Z,7.90
2022-11-22T22:43:48.151Z,7.80
2022-11-22T22:46:18.832Z,7.80
2022-11-22T22:48:48.059Z,8.00
2022-11-22T22:51:18.734Z,8.10
2022-11-22T22:53:47.650Z,8.00
2022-11-22T22:56:18.943Z,8.10
2022-11-22T22:58:49.028Z,8.10
2022-11-22T23:01:20.551Z,8.10
2022-11-22T23:03:49.434Z,8.20
2022-11-22T23:06:18.785Z,8.20
2022-11-22T23:08:50.037Z,8.40
2022-11-22T23:11:22.744Z,8.30
2022-11-22T23:13:52.060Z,8.40
2022-11-22T23:16:20.116Z,8.40
2022-11-22T23:18:48.105Z,8.30
2022-11-22T23:21:16.643Z,8.10
2022-11-22T23:23:44.635Z,8.10
2022-11-22T23:26:13.721Z,8.00
2022-11-22T23:28:41.727Z,7.80
2022-11-22T23:31:17.331Z,7.90
2022-11-22T23:33:47.563Z,8.00
2022-11-22T23:36:18.150Z,8.10
2022-11-22T23:38:46.920Z,8.00
2022-11-22T23:41:17.032Z,7.70
2022-11-22T23:43:45.404Z,7.60
2022-11-22T23:46:16.864Z,7.70
2022-11-22T23:48:45.512Z,7.60
2022-11-22T23:51:14.640Z,7.60
2022-11-22T23:53:42.896Z,7.50
2022-11-22T23:56:15.090Z,7.40
2022-11-22T23:58:46.363Z,7.30
